sensor_id;sensor_type;location;lat;lon;timestamp;temperature;humidity
11239;DHT22;5677;48.488;13.436;2022-08-30T00:02:17;21.40;57.90
11239;DHT22;5677;48.488;13.436;2022-08-30T00:04:45;21.40;57.30
11239;DHT22;5677;48.488;13.436;2022-08-30T00:07:12;21.40;57.30
11239;DHT22;5677;48.488;13.436;2022-08-30T00:09:39;21.40;57.30
11239;DHT22;5677;48.488;13.436;2022-08-30T00:12:07;21.40;57.90
11239;DHT22;5677;48.488;13.436;2022-08-30T00:14:34;21.40;57.30
11239;DHT22;5677;48.488;13.436;2022-08-30T00:17:01;21.40;57.30
11239;DHT22;5677;48.488;13.436;2022-08-30T00:19:29;21.40;57.30
11239;DHT22;5677;48.488;13.436;2022-08-30T00:21:56;21.40;57.30
11239;DHT22;5677;48.488;13.436;2022-08-30T00:24:23;21.40;57.30
11239;DHT22;5677;48.488;13.436;2022-08-30T00:26:50;21.40;57.40
11239;DHT22;5677;48.488;13.436;2022-08-30T00:29:17;21.40;57.30
11239;DHT22;5677;48.488;13.436;2022-08-30T00:31:45;21.40;57.30
11239;DHT22;5677;48.488;13.436;2022-08-30T00:34:12;21.40;57.40
11239;DHT22;5677;48.488;13.436;2022-08-30T00:36:42;21.40;57.30
11239;DHT22;5677;48.488;13.436;2022-08-30T00:39:09;21.40;57.30
11239;DHT22;5677;48.488;13.436;2022-08-30T00:41:37;21.40;57.30
11239;DHT22;5677;48.488;13.436;2022-08-30T00:44:04;21.40;57.40
11239;DHT22;5677;48.488;13.436;2022-08-30T00:46:32;21.40;57.30
11239;DHT22;5677;48.488;13.436;2022-08-30T00:49:02;21.40;57.30
11239;DHT22;5677;48.488;13.436;2022-08-30T00:51:32;21.40;57.30
11239;DHT22;5677;48.488;13.436;2022-08-30T00:54:01;21.40;57.30
11239;DHT22;5677;48.488;13.436;2022-08-30T00:56:30;21.40;57.30
11239;DHT22;5677;48.488;13.436;2022-08-30T00:58:59;21.30;57.30
11239;DHT22;5677;48.488;13.436;2022-08-30T01:01:29;21.40;57.30
11239;DHT22;5677;48.488;13.436;2022-08-30T01:03:57;21.40;57.40
11239;DHT22;5677;48.488;13.436;2022-08-30T01:06:25;21.40;57.40
11239;DHT22;5677;48.488;13.436;2022-08-30T01:08:53;21.40;57.40
11239;DHT22;5677;48.488;13.436;2022-08-30T01:11:22;21.30;57.40
11239;DHT22;5677;48.488;13.436;2022-08-30T01:13:51;21.30;57.40
11239;DHT22;5677;48.488;13.436;2022-08-30T01:16:21;21.30;57.40
11239;DHT22;5677;48.488;13.436;2022-08-30T01:18:52;21.40;57.40
11239;DHT22;5677;48.488;13.436;2022-08-30T01:21:27;21.30;57.40
11239;DHT22;5677;48.488;13.436;2022-08-30T01:24:01;21.30;57.40
11239;DHT22;5677;48.488;13.436;2022-08-30T01:26:30;21.30;57.40
11239;DHT22;5677;48.488;13.436;2022-08-30T01:29:05;21.30;57.40
11239;DHT22;5677;48.488;13.436;2022-08-30T01:31:35;21.30;57.40
11239;DHT22;5677;48.488;13.436;2022-08-30T01:34:02;21.30;57.40
11239;DHT22;5677;48.488;13.436;2022-08-30T01:36:32;21.30;57.40
11239;DHT22;5677;48.488;13.436;2022-08-30T01:39:02;21.30;57.40
11239;DHT22;5677;48.488;13.436;2022-08-30T01:41:31;21.30;57.40
11239;DHT22;5677;48.488;13.436;2022-08-30T01:44:02;21.30;57.40
11239;DHT22;5677;48.488;13.436;2022-08-30T01:46:34;21.30;57.40
11239;DHT22;5677;48.488;13.436;2022-08-30T01:49:05;21.30;57.40
11239;DHT22;5677;48.488;13.436;2022-08-30T01:51:34;21.30;57.40
11239;DHT22;5677;48.488;13.436;2022-08-30T01:54:03;21.30;57.40
11239;DHT22;5677;48.488;13.436;2022-08-30T01:56:30;21.30;57.40
11239;DHT22;5677;48.488;13.436;2022-08-30T01:58:57;21.30;57.40
11239;DHT22;5677;48.488;13.436;2022-08-30T02:01:26;21.30;57.40
11239;DHT22;5677;48.488;13.436;2022-08-30T02:03:55;21.30;57.40
11239;DHT22;5677;48.488;13.436;2022-08-30T02:06:23;21.30;57.40
11239;DHT22;5677;48.488;13.436;2022-08-30T02:08:50;21.30;57.40
11239;DHT22;5677;48.488;13.436;2022-08-30T02:11:18;21.30;57.40
11239;DHT22;5677;48.488;13.436;2022-08-30T02:13:46;21.30;57.40
11239;DHT22;5677;48.488;13.436;2022-08-30T02:16:16;21.30;57.40
11239;DHT22;5677;48.488;13.436;2022-08-30T02:18:47;21.30;57.40
11239;DHT22;5677;48.488;13.436;2022-08-30T02:21:15;21.30;57.40
11239;DHT22;5677;48.488;13.436;2022-08-30T02:23:42;21.30;57.40
11239;DHT22;5677;48.488;13.436;2022-08-30T02:26:11;21.20;57.30
11239;DHT22;5677;48.488;13.436;2022-08-30T02:28:40;21.30;57.40
11239;DHT22;5677;48.488;13.436;2022-08-30T02:31:07;21.20;57.30
11239;DHT22;5677;48.488;13.436;2022-08-30T02:33:34;21.20;57.30
11239;DHT22;5677;48.488;13.436;2022-08-30T02:36:02;21.20;57.30
11239;DHT22;5677;48.488;13.436;2022-08-30T02:38:29;21.20;57.30
11239;DHT22;5677;48.488;13.436;2022-08-30T02:40:56;21.20;57.30
11239;DHT22;5677;48.488;13.436;2022-08-30T02:43:24;21.20;57.40
11239;DHT22;5677;48.488;13.436;2022-08-30T02:45:53;21.20;57.40
11239;DHT22;5677;48.488;13.436;2022-08-30T02:48:20;21.20;57.30
11239;DHT22;5677;48.488;13.436;2022-08-30T02:50:49;21.20;57.30
11239;DHT22;5677;48.488;13.436;2022-08-30T02:53:17;21.20;57.30
11239;DHT22;5677;48.488;13.436;2022-08-30T02:55:46;21.20;57.30
11239;DHT22;5677;48.488;13.436;2022-08-30T02:58:14;21.20;57.30
11239;DHT22;5677;48.488;13.436;2022-08-30T03:00:41;21.20;57.40
11239;DHT22;5677;48.488;13.436;2022-08-30T03:03:10;21.20;57.40
11239;DHT22;5677;48.488;13.436;2022-08-30T03:05:37;21.20;57.40
11239;DHT22;5677;48.488;13.436;2022-08-30T03:08:04;21.20;57.40
11239;DHT22;5677;48.488;13.436;2022-08-30T03:10:31;21.20;57.40
11239;DHT22;5677;48.488;13.436;2022-08-30T03:12:58;21.20;57.40
11239;DHT22;5677;48.488;13.436;2022-08-30T03:15:25;21.20;57.40
11239;DHT22;5677;48.488;13.436;2022-08-30T03:17:54;21.20;57.30
11239;DHT22;5677;48.488;13.436;2022-08-30T03:20:23;21.20;57.40
11239;DHT22;5677;48.488;13.436;2022-08-30T03:22:50;21.20;57.30
11239;DHT22;5677;48.488;13.436;2022-08-30T03:25:18;21.20;57.30
11239;DHT22;5677;48.488;13.436;2022-08-30T03:27:46;21.20;57.40
11239;DHT22;5677;48.488;13.436;2022-08-30T03:30:15;21.20;57.30
11239;DHT22;5677;48.488;13.436;2022-08-30T03:32:43;21.20;57.30
11239;DHT22;5677;48.488;13.436;2022-08-30T03:35:10;21.20;57.40
11239;DHT22;5677;48.488;13.436;2022-08-30T03:37:40;21.20;57.40
11239;DHT22;5677;48.488;13.436;2022-08-30T03:40:08;21.20;57.40
11239;DHT22;5677;48.488;13.436;2022-08-30T03:42:36;21.20;57.30
11239;DHT22;5677;48.488;13.436;2022-08-30T03:45:04;21.20;57.40
11239;DHT22;5677;48.488;13.436;2022-08-30T03:47:33;21.20;57.40
11239;DHT22;5677;48.488;13.436;2022-08-30T03:50:00;21.20;57.40
11239;DHT22;5677;48.488;13.436;2022-08-30T03:52:27;21.20;57.40
11239;DHT22;5677;48.488;13.436;2022-08-30T03:54:55;21.20;57.40
11239;DHT22;5677;48.488;13.436;2022-08-30T03:57:22;21.10;57.40
11239;DHT22;5677;48.488;13.436;2022-08-30T03:59:50;21.20;57.40
11239;DHT22;5677;48.488;13.436;2022-08-30T04:02:17;21.10;57.40
11239;DHT22;5677;48.488;13.436;2022-08-30T04:04:44;21.10;57.40
11239;DHT22;5677;48.488;13.436;2022-08-30T04:07:11;21.10;57.40
11239;DHT22;5677;48.488;13.436;2022-08-30T04:09:38;21.10;57.40
11239;DHT22;5677;48.488;13.436;2022-08-30T04:12:07;21.10;57.40
11239;DHT22;5677;48.488;13.436;2022-08-30T04:14:34;21.10;57.40
11239;DHT22;5677;48.488;13.436;2022-08-30T04:17:01;21.10;57.40
11239;DHT22;5677;48.488;13.436;2022-08-30T04:19:29;21.10;57.40
11239;DHT22;5677;48.488;13.436;2022-08-30T04:21:55;21.10;57.40
11239;DHT22;5677;48.488;13.436;2022-08-30T04:24:22;21.10;57.40
11239;DHT22;5677;48.488;13.436;2022-08-30T04:26:50;21.10;57.40
11239;DHT22;5677;48.488;13.436;2022-08-30T04:29:18;21.10;57.40
11239;DHT22;5677;48.488;13.436;2022-08-30T04:31:45;21.10;57.40
11239;DHT22;5677;48.488;13.436;2022-08-30T04:34:13;21.10;57.40
11239;DHT22;5677;48.488;13.436;2022-08-30T04:36:40;21.10;57.40
11239;DHT22;5677;48.488;13.436;2022-08-30T04:39:07;21.10;57.40
11239;DHT22;5677;48.488;13.436;2022-08-30T04:41:35;21.10;57.40
11239;DHT22;5677;48.488;13.436;2022-08-30T04:44:05;21.10;57.40
11239;DHT22;5677;48.488;13.436;2022-08-30T04:46:35;21.10;57.50
11239;DHT22;5677;48.488;13.436;2022-08-30T04:49:02;21.10;57.40
11239;DHT22;5677;48.488;13.436;2022-08-30T04:51:30;21.10;57.40
11239;DHT22;5677;48.488;13.436;2022-08-30T04:53:57;21.10;57.40
11239;DHT22;5677;48.488;13.436;2022-08-30T04:56:24;21.10;57.40
11239;DHT22;5677;48.488;13.436;2022-08-30T04:58:53;21.10;57.50
11239;DHT22;5677;48.488;13.436;2022-08-30T05:01:22;21.10;57.40
11239;DHT22;5677;48.488;13.436;2022-08-30T05:03:53;21.10;57.40
11239;DHT22;5677;48.488;13.436;2022-08-30T05:06:23;21.10;57.40
11239;DHT22;5677;48.488;13.436;2022-08-30T05:08:52;21.10;57.40
11239;DHT22;5677;48.488;13.436;2022-08-30T05:11:20;21.10;57.40
11239;DHT22;5677;48.488;13.436;2022-08-30T05:13:48;21.10;57.40
11239;DHT22;5677;48.488;13.436;2022-08-30T05:16:15;21.00;57.40
11239;DHT22;5677;48.488;13.436;2022-08-30T05:18:44;21.10;57.40
11239;DHT22;5677;48.488;13.436;2022-08-30T05:21:16;21.10;57.50
11239;DHT22;5677;48.488;13.436;2022-08-30T05:23:45;21.10;57.40
11239;DHT22;5677;48.488;13.436;2022-08-30T05:26:15;21.10;57.40
11239;DHT22;5677;48.488;13.436;2022-08-30T05:28:44;21.00;57.30
11239;DHT22;5677;48.488;13.436;2022-08-30T05:31:13;21.00;57.30
11239;DHT22;5677;48.488;13.436;2022-08-30T05:33:42;21.10;57.40
11239;DHT22;5677;48.488;13.436;2022-08-30T05:36:12;21.10;57.40
11239;DHT22;5677;48.488;13.436;2022-08-30T05:38:42;21.10;57.40
11239;DHT22;5677;48.488;13.436;2022-08-30T05:41:10;21.10;57.40
11239;DHT22;5677;48.488;13.436;2022-08-30T05:43:37;21.10;57.40
11239;DHT22;5677;48.488;13.436;2022-08-30T05:46:07;21.00;57.30
11239;DHT22;5677;48.488;13.436;2022-08-30T05:48:37;21.10;57.40
11239;DHT22;5677;48.488;13.436;2022-08-30T05:51:07;21.10;57.40
11239;DHT22;5677;48.488;13.436;2022-08-30T05:53:37;21.10;57.40
11239;DHT22;5677;48.488;13.436;2022-08-30T05:56:07;21.10;57.40
11239;DHT22;5677;48.488;13.436;2022-08-30T05:58:36;21.10;57.30
11239;DHT22;5677;48.488;13.436;2022-08-30T06:01:04;21.10;57.30
11239;DHT22;5677;48.488;13.436;2022-08-30T06:03:32;21.10;57.30
11239;DHT22;5677;48.488;13.436;2022-08-30T06:05:59;21.10;57.30
11239;DHT22;5677;48.488;13.436;2022-08-30T06:08:26;21.10;57.30
11239;DHT22;5677;48.488;13.436;2022-08-30T06:10:55;21.10;57.30
11239;DHT22;5677;48.488;13.436;2022-08-30T06:13:21;21.10;57.30
11239;DHT22;5677;48.488;13.436;2022-08-30T06:15:48;21.10;57.20
11239;DHT22;5677;48.488;13.436;2022-08-30T06:18:17;21.10;57.20
11239;DHT22;5677;48.488;13.436;2022-08-30T06:20:44;21.10;57.20
11239;DHT22;5677;48.488;13.436;2022-08-30T06:23:12;21.10;57.20
11239;DHT22;5677;48.488;13.436;2022-08-30T06:25:42;21.10;57.20
11239;DHT22;5677;48.488;13.436;2022-08-30T06:28:11;21.20;57.80
11239;DHT22;5677;48.488;13.436;2022-08-30T06:30:39;21.20;57.70
11239;DHT22;5677;48.488;13.436;2022-08-30T06:33:07;21.20;57.00
11239;DHT22;5677;48.488;13.436;2022-08-30T06:35:35;21.20;56.90
11239;DHT22;5677;48.488;13.436;2022-08-30T06:38:03;21.20;56.90
11239;DHT22;5677;48.488;13.436;2022-08-30T06:40:30;21.20;56.80
11239;DHT22;5677;48.488;13.436;2022-08-30T06:42:57;21.30;56.90
11239;DHT22;5677;48.488;13.436;2022-08-30T06:45:26;21.30;56.90
11239;DHT22;5677;48.488;13.436;2022-08-30T06:47:55;21.30;56.80
11239;DHT22;5677;48.488;13.436;2022-08-30T06:50:23;21.30;56.80
11239;DHT22;5677;48.488;13.436;2022-08-30T06:52:51;21.30;56.80
11239;DHT22;5677;48.488;13.436;2022-08-30T06:55:18;21.40;56.70
11239;DHT22;5677;48.488;13.436;2022-08-30T06:57:46;21.40;56.70
11239;DHT22;5677;48.488;13.436;2022-08-30T07:00:15;21.40;56.70
11239;DHT22;5677;48.488;13.436;2022-08-30T07:02:43;21.40;56.50
11239;DHT22;5677;48.488;13.436;2022-08-30T07:05:11;21.40;56.40
11239;DHT22;5677;48.488;13.436;2022-08-30T07:07:38;21.40;56.40
11239;DHT22;5677;48.488;13.436;2022-08-30T07:10:07;21.50;56.40
11239;DHT22;5677;48.488;13.436;2022-08-30T07:12:35;21.50;56.40
11239;DHT22;5677;48.488;13.436;2022-08-30T07:15:03;21.50;56.30
11239;DHT22;5677;48.488;13.436;2022-08-30T07:17:32;21.50;55.70
11239;DHT22;5677;48.488;13.436;2022-08-30T07:20:19;21.50;56.20
11239;DHT22;5677;48.488;13.436;2022-08-30T07:22:47;21.60;56.20
11239;DHT22;5677;48.488;13.436;2022-08-30T07:25:14;21.60;56.10
11239;DHT22;5677;48.488;13.436;2022-08-30T07:27:41;21.60;56.00
11239;DHT22;5677;48.488;13.436;2022-08-30T07:30:11;21.60;56.00
11239;DHT22;5677;48.488;13.436;2022-08-30T07:32:38;21.60;55.90
11239;DHT22;5677;48.488;13.436;2022-08-30T07:35:05;21.60;55.90
11239;DHT22;5677;48.488;13.436;2022-08-30T07:37:34;21.60;55.80
11239;DHT22;5677;48.488;13.436;2022-08-30T07:40:01;21.70;55.90
11239;DHT22;5677;48.488;13.436;2022-08-30T07:42:29;21.70;55.90
11239;DHT22;5677;48.488;13.436;2022-08-30T07:44:56;21.60;55.70
11239;DHT22;5677;48.488;13.436;2022-08-30T07:47:23;21.70;55.80
11239;DHT22;5677;48.488;13.436;2022-08-30T07:49:49;21.70;55.80
11239;DHT22;5677;48.488;13.436;2022-08-30T07:52:16;21.70;55.70
11239;DHT22;5677;48.488;13.436;2022-08-30T07:54:45;21.70;55.70
11239;DHT22;5677;48.488;13.436;2022-08-30T07:57:11;21.70;55.70
11239;DHT22;5677;48.488;13.436;2022-08-30T07:59:38;21.70;55.60
11239;DHT22;5677;48.488;13.436;2022-08-30T08:02:05;21.70;55.60
11239;DHT22;5677;48.488;13.436;2022-08-30T08:04:33;21.80;55.60
11239;DHT22;5677;48.488;13.436;2022-08-30T08:07:00;21.70;56.30
11239;DHT22;5677;48.488;13.436;2022-08-30T08:09:27;21.80;55.60
11239;DHT22;5677;48.488;13.436;2022-08-30T08:11:55;21.80;55.60
11239;DHT22;5677;48.488;13.436;2022-08-30T08:14:22;21.80;55.50
11239;DHT22;5677;48.488;13.436;2022-08-30T08:16:49;21.80;55.50
11239;DHT22;5677;48.488;13.436;2022-08-30T08:19:17;21.80;55.50
11239;DHT22;5677;48.488;13.436;2022-08-30T08:21:44;21.80;55.50
11239;DHT22;5677;48.488;13.436;2022-08-30T08:24:11;21.80;55.50
11239;DHT22;5677;48.488;13.436;2022-08-30T08:26:39;21.80;55.50
11239;DHT22;5677;48.488;13.436;2022-08-30T08:29:08;21.80;55.50
11239;DHT22;5677;48.488;13.436;2022-08-30T08:31:36;21.80;55.50
11239;DHT22;5677;48.488;13.436;2022-08-30T08:34:04;21.80;55.50
11239;DHT22;5677;48.488;13.436;2022-08-30T08:36:31;21.80;55.50
11239;DHT22;5677;48.488;13.436;2022-08-30T08:39:00;21.80;55.50
11239;DHT22;5677;48.488;13.436;2022-08-30T08:41:37;21.80;55.50
11239;DHT22;5677;48.488;13.436;2022-08-30T08:44:18;21.80;55.50
11239;DHT22;5677;48.488;13.436;2022-08-30T08:46:59;21.80;55.50
11239;DHT22;5677;48.488;13.436;2022-08-30T08:49:35;21.90;55.70
11239;DHT22;5677;48.488;13.436;2022-08-30T08:52:05;21.80;55.60
11239;DHT22;5677;48.488;13.436;2022-08-30T08:54:55;21.90;55.70
11239;DHT22;5677;48.488;13.436;2022-08-30T08:57:30;21.90;55.70
11239;DHT22;5677;48.488;13.436;2022-08-30T09:00:03;21.90;55.70
11239;DHT22;5677;48.488;13.436;2022-08-30T09:02:39;21.90;55.70
11239;DHT22;5677;48.488;13.436;2022-08-30T09:05:10;21.90;55.70
11239;DHT22;5677;48.488;13.436;2022-08-30T09:07:47;21.90;55.80
11239;DHT22;5677;48.488;13.436;2022-08-30T09:10:16;21.90;55.70
11239;DHT22;5677;48.488;13.436;2022-08-30T09:12:43;21.90;55.70
11239;DHT22;5677;48.488;13.436;2022-08-30T09:15:18;21.90;55.70
11239;DHT22;5677;48.488;13.436;2022-08-30T09:17:52;21.90;55.80
11239;DHT22;5677;48.488;13.436;2022-08-30T09:20:27;21.90;55.70
11239;DHT22;5677;48.488;13.436;2022-08-30T09:22:57;21.90;55.80
11239;DHT22;5677;48.488;13.436;2022-08-30T09:25:26;21.90;55.80
11239;DHT22;5677;48.488;13.436;2022-08-30T09:28:09;21.90;55.80
11239;DHT22;5677;48.488;13.436;2022-08-30T09:30:57;21.90;55.80
11239;DHT22;5677;48.488;13.436;2022-08-30T09:33:27;21.90;55.80
11239;DHT22;5677;48.488;13.436;2022-08-30T09:35:54;21.90;55.80
11239;DHT22;5677;48.488;13.436;2022-08-30T09:38:24;21.90;55.80
11239;DHT22;5677;48.488;13.436;2022-08-30T09:40:56;21.90;55.80
11239;DHT22;5677;48.488;13.436;2022-08-30T09:43:27;21.90;55.80
11239;DHT22;5677;48.488;13.436;2022-08-30T09:46:09;21.90;55.80
11239;DHT22;5677;48.488;13.436;2022-08-30T09:48:38;21.90;55.90
11239;DHT22;5677;48.488;13.436;2022-08-30T09:51:20;21.90;55.90
11239;DHT22;5677;48.488;13.436;2022-08-30T09:54:09;21.90;55.90
11239;DHT22;5677;48.488;13.436;2022-08-30T09:56:50;21.90;55.90
11239;DHT22;5677;48.488;13.436;2022-08-30T09:59:38;21.90;55.90
11239;DHT22;5677;48.488;13.436;2022-08-30T10:02:26;21.90;55.90
11239;DHT22;5677;48.488;13.436;2022-08-30T10:05:09;22.00;55.90
11239;DHT22;5677;48.488;13.436;2022-08-30T10:07:47;21.90;55.90
11239;DHT22;5677;48.488;13.436;2022-08-30T10:10:30;21.90;55.90
11239;DHT22;5677;48.488;13.436;2022-08-30T10:13:08;21.90;56.00
11239;DHT22;5677;48.488;13.436;2022-08-30T10:16:03;21.90;55.90
11239;DHT22;5677;48.488;13.436;2022-08-30T10:18:45;21.90;56.00
11239;DHT22;5677;48.488;13.436;2022-08-30T10:21:24;21.90;56.00
11239;DHT22;5677;48.488;13.436;2022-08-30T10:23:57;22.00;56.00
11239;DHT22;5677;48.488;13.436;2022-08-30T10:26:31;22.00;56.00
11239;DHT22;5677;48.488;13.436;2022-08-30T10:29:05;22.00;56.00
11239;DHT22;5677;48.488;13.436;2022-08-30T10:31:39;22.00;56.00
11239;DHT22;5677;48.488;13.436;2022-08-30T10:34:17;22.00;56.00
11239;DHT22;5677;48.488;13.436;2022-08-30T10:36:53;22.00;56.70
11239;DHT22;5677;48.488;13.436;2022-08-30T10:39:27;22.00;56.00
11239;DHT22;5677;48.488;13.436;2022-08-30T10:42:02;22.00;56.00
11239;DHT22;5677;48.488;13.436;2022-08-30T10:44:37;22.00;56.00
11239;DHT22;5677;48.488;13.436;2022-08-30T10:47:15;22.00;56.00
11239;DHT22;5677;48.488;13.436;2022-08-30T10:49:56;22.00;56.10
11239;DHT22;5677;48.488;13.436;2022-08-30T10:52:33;22.00;56.10
11239;DHT22;5677;48.488;13.436;2022-08-30T10:55:10;22.00;56.10
11239;DHT22;5677;48.488;13.436;2022-08-30T10:57:41;22.00;56.10
11239;DHT22;5677;48.488;13.436;2022-08-30T11:00:12;22.00;56.10
11239;DHT22;5677;48.488;13.436;2022-08-30T11:03:19;22.00;56.10
11239;DHT22;5677;48.488;13.436;2022-08-30T11:06:19;22.00;56.10
11239;DHT22;5677;48.488;13.436;2022-08-30T11:12:23;22.00;56.20
11239;DHT22;5677;48.488;13.436;2022-08-30T11:14:56;22.00;56.10
11239;DHT22;5677;48.488;13.436;2022-08-30T11:17:27;22.00;56.10
11239;DHT22;5677;48.488;13.436;2022-08-30T11:19:58;22.00;56.10
11239;DHT22;5677;48.488;13.436;2022-08-30T11:22:31;22.10;56.20
11239;DHT22;5677;48.488;13.436;2022-08-30T11:25:10;22.00;56.20
11239;DHT22;5677;48.488;13.436;2022-08-30T11:27:42;22.10;56.30
11239;DHT22;5677;48.488;13.436;2022-08-30T11:30:47;22.10;56.20
11239;DHT22;5677;48.488;13.436;2022-08-30T11:33:38;22.10;56.20
11239;DHT22;5677;48.488;13.436;2022-08-30T11:36:08;22.10;56.30
11239;DHT22;5677;48.488;13.436;2022-08-30T11:39:04;22.10;56.20
11239;DHT22;5677;48.488;13.436;2022-08-30T11:41:36;22.10;56.20
11239;DHT22;5677;48.488;13.436;2022-08-30T11:44:25;22.10;56.20
11239;DHT22;5677;48.488;13.436;2022-08-30T11:46:55;22.10;56.20
11239;DHT22;5677;48.488;13.436;2022-08-30T11:49:44;22.10;56.20
11239;DHT22;5677;48.488;13.436;2022-08-30T11:52:42;22.10;56.20
11239;DHT22;5677;48.488;13.436;2022-08-30T11:55:33;22.10;56.20
11239;DHT22;5677;48.488;13.436;2022-08-30T11:58:26;22.10;56.30
11239;DHT22;5677;48.488;13.436;2022-08-30T12:01:21;22.10;56.30
11239;DHT22;5677;48.488;13.436;2022-08-30T12:04:03;22.10;56.30
11239;DHT22;5677;48.488;13.436;2022-08-30T12:06:50;22.10;56.30
11239;DHT22;5677;48.488;13.436;2022-08-30T12:12:54;22.10;56.30
11239;DHT22;5677;48.488;13.436;2022-08-30T12:15:53;22.10;56.30
11239;DHT22;5677;48.488;13.436;2022-08-30T12:18:34;22.10;56.30
11239;DHT22;5677;48.488;13.436;2022-08-30T12:21:13;22.10;56.30
11239;DHT22;5677;48.488;13.436;2022-08-30T12:23:52;22.10;56.30
11239;DHT22;5677;48.488;13.436;2022-08-30T12:26:32;22.10;56.30
11239;DHT22;5677;48.488;13.436;2022-08-30T12:29:09;22.20;56.30
11239;DHT22;5677;48.488;13.436;2022-08-30T12:31:44;22.10;56.30
11239;DHT22;5677;48.488;13.436;2022-08-30T12:34:19;22.20;56.30
11239;DHT22;5677;48.488;13.436;2022-08-30T12:36:53;22.20;56.30
11239;DHT22;5677;48.488;13.436;2022-08-30T12:39:27;22.20;56.30
11239;DHT22;5677;48.488;13.436;2022-08-30T12:42:09;22.20;56.30
11239;DHT22;5677;48.488;13.436;2022-08-30T12:44:38;22.20;56.30
11239;DHT22;5677;48.488;13.436;2022-08-30T12:47:10;22.20;56.30
11239;DHT22;5677;48.488;13.436;2022-08-30T12:49:40;22.20;56.30
11239;DHT22;5677;48.488;13.436;2022-08-30T12:52:19;22.20;56.30
11239;DHT22;5677;48.488;13.436;2022-08-30T12:54:48;22.20;56.30
11239;DHT22;5677;48.488;13.436;2022-08-30T12:57:34;22.20;56.30
11239;DHT22;5677;48.488;13.436;2022-08-30T13:00:04;22.20;56.30
11239;DHT22;5677;48.488;13.436;2022-08-30T13:02:46;22.20;56.30
11239;DHT22;5677;48.488;13.436;2022-08-30T13:05:34;22.20;56.30
11239;DHT22;5677;48.488;13.436;2022-08-30T13:08:14;22.20;56.30
11239;DHT22;5677;48.488;13.436;2022-08-30T13:10:55;22.20;56.30
11239;DHT22;5677;48.488;13.436;2022-08-30T13:13:42;22.20;56.30
11239;DHT22;5677;48.488;13.436;2022-08-30T13:16:22;22.20;56.30
11239;DHT22;5677;48.488;13.436;2022-08-30T13:18:55;22.20;56.30
11239;DHT22;5677;48.488;13.436;2022-08-30T13:21:49;22.20;56.30
11239;DHT22;5677;48.488;13.436;2022-08-30T13:24:17;22.20;56.30
11239;DHT22;5677;48.488;13.436;2022-08-30T13:26:44;22.30;56.40
11239;DHT22;5677;48.488;13.436;2022-08-30T13:29:15;22.30;56.30
11239;DHT22;5677;48.488;13.436;2022-08-30T13:31:44;22.30;56.40
11239;DHT22;5677;48.488;13.436;2022-08-30T13:34:12;22.30;56.30
11239;DHT22;5677;48.488;13.436;2022-08-30T13:36:45;22.30;56.30
11239;DHT22;5677;48.488;13.436;2022-08-30T13:39:14;22.30;56.40
11239;DHT22;5677;48.488;13.436;2022-08-30T13:41:41;22.30;56.30
11239;DHT22;5677;48.488;13.436;2022-08-30T13:44:08;22.20;56.20
11239;DHT22;5677;48.488;13.436;2022-08-30T13:46:35;22.30;56.30
11239;DHT22;5677;48.488;13.436;2022-08-30T13:49:07;22.30;56.30
11239;DHT22;5677;48.488;13.436;2022-08-30T13:51:39;22.30;56.30
11239;DHT22;5677;48.488;13.436;2022-08-30T13:54:06;22.30;56.30
11239;DHT22;5677;48.488;13.436;2022-08-30T13:56:33;22.30;56.30
11239;DHT22;5677;48.488;13.436;2022-08-30T13:59:01;22.30;56.30
11239;DHT22;5677;48.488;13.436;2022-08-30T14:01:29;22.30;56.30
11239;DHT22;5677;48.488;13.436;2022-08-30T14:03:56;22.30;56.30
11239;DHT22;5677;48.488;13.436;2022-08-30T14:06:23;22.30;56.30
11239;DHT22;5677;48.488;13.436;2022-08-30T14:08:51;22.30;56.30
11239;DHT22;5677;48.488;13.436;2022-08-30T14:11:19;22.30;57.00
11239;DHT22;5677;48.488;13.436;2022-08-30T14:13:47;22.30;56.30
11239;DHT22;5677;48.488;13.436;2022-08-30T14:16:15;22.30;56.30
11239;DHT22;5677;48.488;13.436;2022-08-30T14:18:42;22.30;56.30
11239;DHT22;5677;48.488;13.436;2022-08-30T14:21:09;22.30;56.30
11239;DHT22;5677;48.488;13.436;2022-08-30T14:23:35;22.30;56.30
11239;DHT22;5677;48.488;13.436;2022-08-30T14:26:10;22.30;56.30
11239;DHT22;5677;48.488;13.436;2022-08-30T14:28:40;22.30;56.30
11239;DHT22;5677;48.488;13.436;2022-08-30T14:31:09;22.30;56.30
11239;DHT22;5677;48.488;13.436;2022-08-30T14:33:36;22.30;56.20
11239;DHT22;5677;48.488;13.436;2022-08-30T14:36:03;22.30;56.30
11239;DHT22;5677;48.488;13.436;2022-08-30T14:38:30;22.30;56.20
11239;DHT22;5677;48.488;13.436;2022-08-30T14:40:57;22.30;56.20
11239;DHT22;5677;48.488;13.436;2022-08-30T14:43:25;22.30;56.30
11239;DHT22;5677;48.488;13.436;2022-08-30T14:45:52;22.30;56.30
11239;DHT22;5677;48.488;13.436;2022-08-30T14:48:19;22.30;56.30
11239;DHT22;5677;48.488;13.436;2022-08-30T14:50:46;22.30;56.20
11239;DHT22;5677;48.488;13.436;2022-08-30T14:53:13;22.30;56.30
11239;DHT22;5677;48.488;13.436;2022-08-30T14:55:40;22.30;56.30
11239;DHT22;5677;48.488;13.436;2022-08-30T14:58:07;22.40;56.30
11239;DHT22;5677;48.488;13.436;2022-08-30T15:00:37;22.30;56.20
11239;DHT22;5677;48.488;13.436;2022-08-30T15:03:04;22.40;56.20
11239;DHT22;5677;48.488;13.436;2022-08-30T15:05:33;22.40;56.30
11239;DHT22;5677;48.488;13.436;2022-08-30T15:08:00;22.40;56.30
11239;DHT22;5677;48.488;13.436;2022-08-30T15:10:26;22.40;56.20
11239;DHT22;5677;48.488;13.436;2022-08-30T15:12:53;22.30;56.20
11239;DHT22;5677;48.488;13.436;2022-08-30T15:15:21;22.30;56.20
11239;DHT22;5677;48.488;13.436;2022-08-30T15:17:49;22.30;56.30
11239;DHT22;5677;48.488;13.436;2022-08-30T15:20:16;22.30;56.30
11239;DHT22;5677;48.488;13.436;2022-08-30T15:22:44;22.30;56.30
11239;DHT22;5677;48.488;13.436;2022-08-30T15:25:12;22.30;56.30
11239;DHT22;5677;48.488;13.436;2022-08-30T15:27:39;22.30;56.30
11239;DHT22;5677;48.488;13.436;2022-08-30T15:30:07;22.30;56.30
11239;DHT22;5677;48.488;13.436;2022-08-30T15:32:35;22.30;56.30
11239;DHT22;5677;48.488;13.436;2022-08-30T15:35:04;22.30;56.30
11239;DHT22;5677;48.488;13.436;2022-08-30T15:37:32;22.30;56.30
11239;DHT22;5677;48.488;13.436;2022-08-30T15:39:59;22.30;56.30
11239;DHT22;5677;48.488;13.436;2022-08-30T15:42:26;22.30;56.30
11239;DHT22;5677;48.488;13.436;2022-08-30T15:44:53;22.30;56.30
11239;DHT22;5677;48.488;13.436;2022-08-30T15:47:21;22.30;56.30
11239;DHT22;5677;48.488;13.436;2022-08-30T15:49:53;22.30;56.30
11239;DHT22;5677;48.488;13.436;2022-08-30T15:52:23;22.30;56.30
11239;DHT22;5677;48.488;13.436;2022-08-30T15:54:52;22.30;56.30
11239;DHT22;5677;48.488;13.436;2022-08-30T15:57:19;22.30;56.40
11239;DHT22;5677;48.488;13.436;2022-08-30T15:59:46;22.30;56.40
11239;DHT22;5677;48.488;13.436;2022-08-30T16:02:13;22.30;56.40